Аэропорт: Челябинск. Челябинск

ICAO: USCC

METAR:
2019/05/26 14:00
USCC 261400Z 20003MPS CAVOK 18/M02 Q1019 R27/000060 NOSIG RMK QFE744
METAR:
2019/05/26 12:21
TAF TAF USCC 261100Z 2612/2712 22003G10MPS 9999 SCT030CB 
      TEMPO 2615/2706 5000 FU